sensor_id;sensor_type;location;lat;lon;timestamp;pressure;altitude;pressure_sealevel;temperature;humidity
62712;BME280;48772;55.586;37.730;2023-05-07T00:00:38;100297.06;;;2.15;100.00
62712;BME280;48772;55.586;37.730;2023-05-07T00:03:03;100309.34;;;2.16;100.00
62712;BME280;48772;55.586;37.730;2023-05-07T00:05:29;100313.66;;;2.17;100.00
62712;BME280;48772;55.586;37.730;2023-05-07T00:07:55;100315.47;;;2.15;100.00
62712;BME280;48772;55.586;37.730;2023-05-07T00:10:22;100304.47;;;2.04;100.00
62712;BME280;48772;55.586;37.730;2023-05-07T00:12:48;100290.13;;;1.90;100.00
62712;BME280;48772;55.586;37.730;2023-05-07T00:15:13;100310.72;;;2.02;100.00
62712;BME280;48772;55.586;37.730;2023-05-07T00:17:39;100296.41;;;1.86;100.00
62712;BME280;48772;55.586;37.730;2023-05-07T00:20:06;100286.84;;;1.83;100.00
62712;BME280;48772;55.586;37.730;2023-05-07T00:22:32;100306.63;;;1.93;100.00
62712;BME280;48772;55.586;37.730;2023-05-07T00:24:59;100317.16;;;1.93;100.00
62712;BME280;48772;55.586;37.730;2023-05-07T00:27:25;100316.50;;;1.87;100.00
62712;BME280;48772;55.586;37.730;2023-05-07T00:29:51;100283.88;;;1.68;100.00
62712;BME280;48772;55.586;37.730;2023-05-07T00:32:17;100314.84;;;1.84;100.00
62712;BME280;48772;55.586;37.730;2023-05-07T00:34:43;100311.59;;;1.78;100.00
62712;BME280;48772;55.586;37.730;2023-05-07T00:37:09;100283.34;;;1.58;100.00
62712;BME280;48772;55.586;37.730;2023-05-07T00:39:35;100307.50;;;1.69;100.00
62712;BME280;48772;55.586;37.730;2023-05-07T00:42:02;100315.19;;;1.74;100.00
62712;BME280;48772;55.586;37.730;2023-05-07T00:44:28;100314.25;;;1.76;100.00
62712;BME280;48772;55.586;37.730;2023-05-07T00:46:57;100310.97;;;1.70;100.00
62712;BME280;48772;55.586;37.730;2023-05-07T00:49:38;100317.19;;;1.67;100.00
62712;BME280;48772;55.586;37.730;2023-05-07T00:52:14;100296.06;;;1.44;100.00
62712;BME280;48772;55.586;37.730;2023-05-07T00:54:41;100310.28;;;1.39;100.00
62712;BME280;48772;55.586;37.730;2023-05-07T00:57:09;100327.41;;;1.50;100.00
62712;BME280;48772;55.586;37.730;2023-05-07T00:59:35;100320.00;;;1.35;100.00
62712;BME280;48772;55.586;37.730;2023-05-07T01:02:01;100303.63;;;1.27;100.00
62712;BME280;48772;55.586;37.730;2023-05-07T01:04:27;100313.19;;;1.30;100.00
62712;BME280;48772;55.586;37.730;2023-05-07T01:06:55;100285.53;;;1.20;100.00
62712;BME280;48772;55.586;37.730;2023-05-07T01:09:25;100320.94;;;1.34;100.00
62712;BME280;48772;55.586;37.730;2023-05-07T01:11:52;100326.19;;;1.34;100.00
62712;BME280;48772;55.586;37.730;2023-05-07T01:14:19;100325.25;;;1.35;100.00
62712;BME280;48772;55.586;37.730;2023-05-07T01:16:47;100333.06;;;1.38;100.00
62712;BME280;48772;55.586;37.730;2023-05-07T01:19:14;100252.59;;;0.82;100.00
62712;BME280;48772;55.586;37.730;2023-05-07T01:21:46;100330.22;;;1.18;100.00
62712;BME280;48772;55.586;37.730;2023-05-07T01:24:13;100325.31;;;1.06;100.00
62712;BME280;48772;55.586;37.730;2023-05-07T01:26:41;100313.50;;;0.93;100.00
62712;BME280;48772;55.586;37.730;2023-05-07T01:29:07;100319.19;;;1.07;100.00
62712;BME280;48772;55.586;37.730;2023-05-07T01:31:34;100324.28;;;1.12;100.00
62712;BME280;48772;55.586;37.730;2023-05-07T01:34:01;100343.97;;;1.26;100.00
62712;BME280;48772;55.586;37.730;2023-05-07T01:36:29;100355.47;;;1.22;100.00
62712;BME280;48772;55.586;37.730;2023-05-07T01:38:57;100346.69;;;1.23;100.00
62712;BME280;48772;55.586;37.730;2023-05-07T01:41:24;100351.00;;;1.24;100.00
62712;BME280;48772;55.586;37.730;2023-05-07T01:43:51;100356.28;;;1.24;100.00
62712;BME280;48772;55.586;37.730;2023-05-07T01:46:18;100313.41;;;0.96;100.00
62712;BME280;48772;55.586;37.730;2023-05-07T01:48:45;100340.38;;;1.01;100.00
62712;BME280;48772;55.586;37.730;2023-05-07T01:51:12;100354.94;;;1.11;100.00
62712;BME280;48772;55.586;37.730;2023-05-07T01:53:39;100349.91;;;1.04;100.00
62712;BME280;48772;55.586;37.730;2023-05-07T01:56:06;100375.81;;;1.16;100.00
62712;BME280;48772;55.586;37.730;2023-05-07T01:58:33;100347.53;;;0.96;100.00
62712;BME280;48772;55.586;37.730;2023-05-07T02:00:59;100379.22;;;1.19;100.00
62712;BME280;48772;55.586;37.730;2023-05-07T02:03:25;100379.13;;;1.22;100.00
62712;BME280;48772;55.586;37.730;2023-05-07T02:05:59;100373.13;;;1.17;100.00
62712;BME280;48772;55.586;37.730;2023-05-07T02:08:31;100387.78;;;1.24;100.00
62712;BME280;48772;55.586;37.730;2023-05-07T02:10:58;100343.72;;;1.06;100.00
62712;BME280;48772;55.586;37.730;2023-05-07T02:13:28;100389.16;;;1.37;100.00
62712;BME280;48772;55.586;37.730;2023-05-07T02:15:55;100377.09;;;1.30;100.00
62712;BME280;48772;55.586;37.730;2023-05-07T02:18:22;100375.56;;;1.23;100.00
62712;BME280;48772;55.586;37.730;2023-05-07T02:20:48;100344.84;;;0.99;100.00
62712;BME280;48772;55.586;37.730;2023-05-07T02:23:17;100359.59;;;1.03;100.00
62712;BME280;48772;55.586;37.730;2023-05-07T02:25:43;100348.53;;;0.92;100.00
62712;BME280;48772;55.586;37.730;2023-05-07T02:28:09;100376.00;;;1.10;100.00
62712;BME280;48772;55.586;37.730;2023-05-07T02:30:47;100320.91;;;0.81;100.00
62712;BME280;48772;55.586;37.730;2023-05-07T02:33:13;100400.69;;;1.32;100.00
62712;BME280;48772;55.586;37.730;2023-05-07T02:35:40;100385.94;;;1.28;100.00
62712;BME280;48772;55.586;37.730;2023-05-07T02:38:06;100374.38;;;1.33;100.00
62712;BME280;48772;55.586;37.730;2023-05-07T02:40:33;100398.09;;;1.58;100.00
62712;BME280;48772;55.586;37.730;2023-05-07T02:42:59;100378.84;;;1.57;100.00
62712;BME280;48772;55.586;37.730;2023-05-07T02:45:25;100400.97;;;1.78;100.00
62712;BME280;48772;55.586;37.730;2023-05-07T02:47:53;100365.41;;;1.66;100.00
62712;BME280;48772;55.586;37.730;2023-05-07T02:50:19;100389.50;;;1.80;100.00
62712;BME280;48772;55.586;37.730;2023-05-07T02:52:45;100402.97;;;1.96;100.00
62712;BME280;48772;55.586;37.730;2023-05-07T02:55:11;100400.59;;;1.88;100.00
62712;BME280;48772;55.586;37.730;2023-05-07T02:57:36;100409.78;;;2.01;100.00
62712;BME280;48772;55.586;37.730;2023-05-07T03:00:17;100402.63;;;2.06;100.00
62712;BME280;48772;55.586;37.730;2023-05-07T03:03:07;100401.78;;;2.04;100.00
62712;BME280;48772;55.586;37.730;2023-05-07T03:05:33;100364.28;;;1.99;100.00
62712;BME280;48772;55.586;37.730;2023-05-07T03:07:58;100419.16;;;2.34;100.00
62712;BME280;48772;55.586;37.730;2023-05-07T03:10:24;100385.44;;;2.21;100.00
62712;BME280;48772;55.586;37.730;2023-05-07T03:12:50;100387.09;;;2.23;100.00
62712;BME280;48772;55.586;37.730;2023-05-07T03:15:17;100423.91;;;2.49;100.00
62712;BME280;48772;55.586;37.730;2023-05-07T03:17:42;100405.13;;;2.58;100.00
62712;BME280;48772;55.586;37.730;2023-05-07T03:20:08;100395.47;;;2.59;100.00
62712;BME280;48772;55.586;37.730;2023-05-07T03:22:36;100415.00;;;2.76;100.00
62712;BME280;48772;55.586;37.730;2023-05-07T03:25:01;100425.09;;;2.88;100.00
62712;BME280;48772;55.586;37.730;2023-05-07T03:27:35;100427.44;;;2.96;100.00
62712;BME280;48772;55.586;37.730;2023-05-07T03:30:00;100433.41;;;3.01;100.00
62712;BME280;48772;55.586;37.730;2023-05-07T03:32:30;100434.94;;;3.06;100.00
62712;BME280;48772;55.586;37.730;2023-05-07T03:34:56;100386.91;;;2.77;100.00
62712;BME280;48772;55.586;37.730;2023-05-07T03:37:22;100430.28;;;3.13;100.00
62712;BME280;48772;55.586;37.730;2023-05-07T03:39:48;100445.84;;;3.20;100.00
62712;BME280;48772;55.586;37.730;2023-05-07T03:42:14;100447.88;;;3.35;100.00
62712;BME280;48772;55.586;37.730;2023-05-07T03:44:40;100435.00;;;3.28;100.00
62712;BME280;48772;55.586;37.730;2023-05-07T03:47:06;100379.88;;;3.00;100.00
62712;BME280;48772;55.586;37.730;2023-05-07T03:49:32;100439.31;;;3.30;100.00
62712;BME280;48772;55.586;37.730;2023-05-07T03:51:58;100445.75;;;3.45;100.00
62712;BME280;48772;55.586;37.730;2023-05-07T03:54:24;100442.56;;;3.58;100.00
62712;BME280;48772;55.586;37.730;2023-05-07T03:56:50;100427.84;;;3.53;100.00
62712;BME280;48772;55.586;37.730;2023-05-07T03:59:15;100457.78;;;3.74;100.00
62712;BME280;48772;55.586;37.730;2023-05-07T04:01:43;100449.50;;;3.83;100.00
62712;BME280;48772;55.586;37.730;2023-05-07T04:04:15;100463.44;;;3.86;100.00
62712;BME280;48772;55.586;37.730;2023-05-07T04:06:41;100443.56;;;3.78;100.00
62712;BME280;48772;55.586;37.730;2023-05-07T04:09:07;100434.53;;;3.62;100.00
62712;BME280;48772;55.586;37.730;2023-05-07T04:11:35;100446.75;;;3.86;100.00
62712;BME280;48772;55.586;37.730;2023-05-07T04:14:01;100469.81;;;3.81;100.00
62712;BME280;48772;55.586;37.730;2023-05-07T04:16:27;100456.31;;;3.88;100.00
62712;BME280;48772;55.586;37.730;2023-05-07T04:18:53;100438.34;;;3.76;100.00
62712;BME280;48772;55.586;37.730;2023-05-07T04:21:20;100460.84;;;4.06;100.00
62712;BME280;48772;55.586;37.730;2023-05-07T04:23:47;100462.00;;;4.21;100.00
62712;BME280;48772;55.586;37.730;2023-05-07T04:26:14;100472.97;;;4.32;100.00
62712;BME280;48772;55.586;37.730;2023-05-07T04:28:42;100477.81;;;4.42;100.00
62712;BME280;48772;55.586;37.730;2023-05-07T04:31:08;100470.28;;;4.53;100.00
62712;BME280;48772;55.586;37.730;2023-05-07T04:33:36;100479.59;;;4.62;100.00
62712;BME280;48772;55.586;37.730;2023-05-07T04:36:04;100463.16;;;4.35;100.00
62712;BME280;48772;55.586;37.730;2023-05-07T04:38:33;100439.34;;;4.15;100.00
62712;BME280;48772;55.586;37.730;2023-05-07T04:41:05;100473.25;;;4.66;100.00
62712;BME280;48772;55.586;37.730;2023-05-07T04:43:34;100480.91;;;4.92;100.00
62712;BME280;48772;55.586;37.730;2023-05-07T04:46:01;100462.28;;;4.75;100.00
62712;BME280;48772;55.586;37.730;2023-05-07T04:48:28;100452.97;;;4.66;100.00
62712;BME280;48772;55.586;37.730;2023-05-07T04:50:54;100451.19;;;4.47;100.00
62712;BME280;48772;55.586;37.730;2023-05-07T04:53:21;100435.91;;;4.55;100.00
62712;BME280;48772;55.586;37.730;2023-05-07T04:55:54;100478.66;;;5.03;100.00
62712;BME280;48772;55.586;37.730;2023-05-07T04:58:21;100472.22;;;5.08;100.00
62712;BME280;48772;55.586;37.730;2023-05-07T05:00:46;100465.88;;;4.92;100.00
62712;BME280;48772;55.586;37.730;2023-05-07T05:03:12;100474.50;;;5.16;100.00
62712;BME280;48772;55.586;37.730;2023-05-07T05:05:39;100464.69;;;5.19;100.00
62712;BME280;48772;55.586;37.730;2023-05-07T05:08:05;100466.84;;;5.48;100.00
62712;BME280;48772;55.586;37.730;2023-05-07T05:10:32;100453.09;;;5.59;100.00
62712;BME280;48772;55.586;37.730;2023-05-07T05:12:58;100457.78;;;5.71;100.00
62712;BME280;48772;55.586;37.730;2023-05-07T05:18:27;100470.38;;;6.03;100.00
62712;BME280;48772;55.586;37.730;2023-05-07T05:20:52;100484.25;;;6.08;100.00
62712;BME280;48772;55.586;37.730;2023-05-07T05:23:19;100490.53;;;6.24;100.00
62712;BME280;48772;55.586;37.730;2023-05-07T05:25:45;100460.75;;;6.36;100.00
62712;BME280;48772;55.586;37.730;2023-05-07T05:28:13;100470.75;;;6.48;100.00
62712;BME280;48772;55.586;37.730;2023-05-07T05:30:58;100479.00;;;6.76;100.00
62712;BME280;48772;55.586;37.730;2023-05-07T05:33:26;100479.50;;;6.67;100.00
62712;BME280;48772;55.586;37.730;2023-05-07T05:35:54;100480.25;;;6.69;100.00
62712;BME280;48772;55.586;37.730;2023-05-07T05:38:20;100482.91;;;6.69;100.00
62712;BME280;48772;55.586;37.730;2023-05-07T05:40:47;100494.81;;;6.95;96.82
62712;BME280;48772;55.586;37.730;2023-05-07T05:43:14;100487.09;;;7.07;94.74
62712;BME280;48772;55.586;37.730;2023-05-07T05:45:40;100493.88;;;7.28;92.68
62712;BME280;48772;55.586;37.730;2023-05-07T05:48:06;100484.63;;;7.20;89.06
62712;BME280;48772;55.586;37.730;2023-05-07T05:50:32;100479.97;;;7.40;89.76
62712;BME280;48772;55.586;37.730;2023-05-07T05:52:58;100470.47;;;7.52;78.16
62712;BME280;48772;55.586;37.730;2023-05-07T05:55:26;100472.72;;;7.59;74.96
62712;BME280;48772;55.586;37.730;2023-05-07T05:57:52;100475.03;;;7.17;76.73
62712;BME280;48772;55.586;37.730;2023-05-07T06:00:38;100503.91;;;7.06;75.69
62712;BME280;48772;55.586;37.730;2023-05-07T06:03:05;100481.88;;;7.21;75.38
62712;BME280;48772;55.586;37.730;2023-05-07T06:05:31;100500.66;;;7.01;79.71
62712;BME280;48772;55.586;37.730;2023-05-07T06:07:57;100495.13;;;7.38;77.57
62712;BME280;48772;55.586;37.730;2023-05-07T06:10:24;100505.34;;;7.77;75.40
62712;BME280;48772;55.586;37.730;2023-05-07T06:12:51;100483.34;;;7.90;67.80
62712;BME280;48772;55.586;37.730;2023-05-07T06:15:17;100507.88;;;7.95;65.92
62712;BME280;48772;55.586;37.730;2023-05-07T06:17:44;100502.38;;;8.29;65.10
62712;BME280;48772;55.586;37.730;2023-05-07T06:20:11;100462.59;;;8.28;64.10
62712;BME280;48772;55.586;37.730;2023-05-07T06:22:38;100507.47;;;8.48;62.14
62712;BME280;48772;55.586;37.730;2023-05-07T06:25:05;100498.06;;;8.72;60.47
62712;BME280;48772;55.586;37.730;2023-05-07T06:27:31;100497.47;;;9.10;58.99
62712;BME280;48772;55.586;37.730;2023-05-07T06:29:57;100497.69;;;9.21;57.37
62712;BME280;48772;55.586;37.730;2023-05-07T06:32:23;100509.78;;;9.41;57.29
62712;BME280;48772;55.586;37.730;2023-05-07T06:34:50;100494.63;;;9.55;56.42
62712;BME280;48772;55.586;37.730;2023-05-07T06:37:16;100491.84;;;9.85;54.98
62712;BME280;48772;55.586;37.730;2023-05-07T06:39:53;100483.50;;;9.77;52.07
62712;BME280;48772;55.586;37.730;2023-05-07T06:42:18;100498.81;;;9.73;53.52
62712;BME280;48772;55.586;37.730;2023-05-07T06:44:47;100504.47;;;9.95;53.65
62712;BME280;48772;55.586;37.730;2023-05-07T06:47:15;100497.16;;;10.13;52.76
62712;BME280;48772;55.586;37.730;2023-05-07T06:49:42;100489.09;;;9.86;51.20
62712;BME280;48772;55.586;37.730;2023-05-07T06:52:07;100498.41;;;10.07;50.71
62712;BME280;48772;55.586;37.730;2023-05-07T06:54:33;100473.09;;;10.00;49.47
62712;BME280;48772;55.586;37.730;2023-05-07T06:56:59;100486.63;;;10.51;49.31
62712;BME280;48772;55.586;37.730;2023-05-07T06:59:27;100495.97;;;10.44;47.21
62712;BME280;48772;55.586;37.730;2023-05-07T07:01:54;100469.16;;;10.59;47.83
62712;BME280;48772;55.586;37.730;2023-05-07T07:04:21;100483.31;;;9.80;47.26
62712;BME280;48772;55.586;37.730;2023-05-07T07:06:54;100472.50;;;9.69;48.48
62712;BME280;48772;55.586;37.730;2023-05-07T07:09:22;100499.88;;;9.43;51.38
62712;BME280;48772;55.586;37.730;2023-05-07T07:11:48;100496.09;;;10.16;49.69
62712;BME280;48772;55.586;37.730;2023-05-07T07:14:14;100489.44;;;9.40;50.90
62712;BME280;48772;55.586;37.730;2023-05-07T07:16:45;100482.09;;;9.29;49.37
62712;BME280;48772;55.586;37.730;2023-05-07T07:19:17;100488.84;;;8.63;51.96
62712;BME280;48772;55.586;37.730;2023-05-07T07:21:44;100506.94;;;8.57;53.38
62712;BME280;48772;55.586;37.730;2023-05-07T07:24:13;100493.53;;;8.74;52.29
62712;BME280;48772;55.586;37.730;2023-05-07T07:26:39;100479.19;;;8.76;50.42
62712;BME280;48772;55.586;37.730;2023-05-07T07:29:06;100483.72;;;9.60;50.03
62712;BME280;48772;55.586;37.730;2023-05-07T07:31:32;100495.53;;;10.37;47.20
62712;BME280;48772;55.586;37.730;2023-05-07T07:33:58;100496.75;;;10.85;44.63
62712;BME280;48772;55.586;37.730;2023-05-07T07:36:24;100475.69;;;10.68;43.77
62712;BME280;48772;55.586;37.730;2023-05-07T07:38:53;100490.56;;;10.84;44.00
62712;BME280;48772;55.586;37.730;2023-05-07T07:41:19;100471.78;;;10.86;42.55
62712;BME280;48772;55.586;37.730;2023-05-07T07:43:45;100462.19;;;10.96;41.54
62712;BME280;48772;55.586;37.730;2023-05-07T07:46:12;100492.31;;;10.05;44.36
62712;BME280;48772;55.586;37.730;2023-05-07T07:48:40;100470.94;;;9.65;46.01
62712;BME280;48772;55.586;37.730;2023-05-07T07:51:06;100493.25;;;9.36;47.18
62712;BME280;48772;55.586;37.730;2023-05-07T07:53:33;100454.63;;;9.01;47.91
62712;BME280;48772;55.586;37.730;2023-05-07T07:55:59;100491.72;;;8.74;47.71
62712;BME280;48772;55.586;37.730;2023-05-07T07:58:30;100479.44;;;9.71;47.00
62712;BME280;48772;55.586;37.730;2023-05-07T08:00:55;100444.91;;;10.50;43.89
62712;BME280;48772;55.586;37.730;2023-05-07T08:03:22;100440.06;;;10.81;42.80
62712;BME280;48772;55.586;37.730;2023-05-07T08:05:52;100453.66;;;10.39;42.30
62712;BME280;48772;55.586;37.730;2023-05-07T08:08:18;100465.19;;;10.13;43.34
62712;BME280;48772;55.586;37.730;2023-05-07T08:10:45;100473.28;;;10.12;44.02
62712;BME280;48772;55.586;37.730;2023-05-07T08:13:18;100479.19;;;9.88;43.14
62712;BME280;48772;55.586;37.730;2023-05-07T08:15:44;100438.56;;;10.26;41.05
62712;BME280;48772;55.586;37.730;2023-05-07T08:18:12;100479.47;;;11.15;39.13
62712;BME280;48772;55.586;37.730;2023-05-07T08:20:38;100471.53;;;11.76;37.38
62712;BME280;48772;55.586;37.730;2023-05-07T08:23:07;100440.34;;;11.52;36.21
62712;BME280;48772;55.586;37.730;2023-05-07T08:25:34;100430.38;;;11.79;35.56
62712;BME280;48772;55.586;37.730;2023-05-07T08:28:04;100460.84;;;11.76;35.89
62712;BME280;48772;55.586;37.730;2023-05-07T08:30:31;100465.91;;;11.31;35.95
62712;BME280;48772;55.586;37.730;2023-05-07T08:32:56;100439.41;;;11.28;36.01
62712;BME280;48772;55.586;37.730;2023-05-07T08:35:22;100455.75;;;10.73;37.14
62712;BME280;48772;55.586;37.730;2023-05-07T08:37:48;100465.09;;;10.27;39.46
62712;BME280;48772;55.586;37.730;2023-05-07T08:40:16;100458.13;;;10.12;39.99
62712;BME280;48772;55.586;37.730;2023-05-07T08:42:43;100479.88;;;10.84;40.27
62712;BME280;48772;55.586;37.730;2023-05-07T08:45:10;100480.00;;;12.06;37.59
62712;BME280;48772;55.586;37.730;2023-05-07T08:47:43;100458.00;;;12.50;35.81
62712;BME280;48772;55.586;37.730;2023-05-07T08:50:13;100421.53;;;11.78;34.38
62712;BME280;48772;55.586;37.730;2023-05-07T08:52:40;100462.91;;;11.73;35.63
62712;BME280;48772;55.586;37.730;2023-05-07T08:55:08;100464.56;;;12.22;34.58
62712;BME280;48772;55.586;37.730;2023-05-07T08:57:34;100457.59;;;12.78;33.67
62712;BME280;48772;55.586;37.730;2023-05-07T09:00:03;100436.19;;;12.78;32.25
62712;BME280;48772;55.586;37.730;2023-05-07T09:02:31;100476.88;;;12.94;32.53
62712;BME280;48772;55.586;37.730;2023-05-07T09:04:57;100462.94;;;13.12;32.25
62712;BME280;48772;55.586;37.730;2023-05-07T09:07:23;100449.66;;;12.76;31.26
62712;BME280;48772;55.586;37.730;2023-05-07T09:09:50;100434.56;;;13.10;31.34
62712;BME280;48772;55.586;37.730;2023-05-07T09:12:18;100457.84;;;13.09;31.37
62712;BME280;48772;55.586;37.730;2023-05-07T09:14:45;100455.44;;;13.51;30.62
62712;BME280;48772;55.586;37.730;2023-05-07T09:17:16;100458.69;;;13.76;30.50
62712;BME280;48772;55.586;37.730;2023-05-07T09:19:44;100419.56;;;12.51;31.38
62712;BME280;48772;55.586;37.730;2023-05-07T09:22:11;100456.69;;;11.72;32.33
62712;BME280;48772;55.586;37.730;2023-05-07T09:24:50;100454.59;;;10.38;33.67
62712;BME280;48772;55.586;37.730;2023-05-07T09:27:17;100466.50;;;10.72;33.45
62712;BME280;48772;55.586;37.730;2023-05-07T09:29:44;100466.63;;;10.70;33.42
62712;BME280;48772;55.586;37.730;2023-05-07T09:32:13;100458.34;;;11.00;33.87
62712;BME280;48772;55.586;37.730;2023-05-07T09:34:51;100420.19;;;11.48;33.74
62712;BME280;48772;55.586;37.730;2023-05-07T09:37:21;100422.44;;;12.13;32.05
62712;BME280;48772;55.586;37.730;2023-05-07T09:39:49;100452.53;;;12.86;31.48
62712;BME280;48772;55.586;37.730;2023-05-07T09:42:25;100432.63;;;13.01;30.49
62712;BME280;48772;55.586;37.730;2023-05-07T09:44:59;100455.44;;;12.83;30.69
62712;BME280;48772;55.586;37.730;2023-05-07T09:47:32;100438.94;;;12.31;31.48
62712;BME280;48772;55.586;37.730;2023-05-07T09:49:59;100455.03;;;11.95;30.98
62712;BME280;48772;55.586;37.730;2023-05-07T09:52:30;100458.94;;;12.49;29.90
62712;BME280;48772;55.586;37.730;2023-05-07T09:55:02;100450.28;;;13.14;29.68
62712;BME280;48772;55.586;37.730;2023-05-07T09:57:32;100454.38;;;12.62;30.02
62712;BME280;48772;55.586;37.730;2023-05-07T10:00:05;100407.28;;;12.48;30.05
62712;BME280;48772;55.586;37.730;2023-05-07T10:02:48;100418.69;;;12.85;29.33
62712;BME280;48772;55.586;37.730;2023-05-07T10:05:18;100452.31;;;13.00;29.74
62712;BME280;48772;55.586;37.730;2023-05-07T10:07:46;100438.41;;;12.26;29.59
62712;BME280;48772;55.586;37.730;2023-05-07T10:10:14;100416.50;;;11.74;30.21
62712;BME280;48772;55.586;37.730;2023-05-07T10:12:44;100448.69;;;11.72;31.35
62712;BME280;48772;55.586;37.730;2023-05-07T10:15:21;100443.03;;;12.00;30.88
62712;BME280;48772;55.586;37.730;2023-05-07T10:17:51;100443.91;;;11.88;30.52
62712;BME280;48772;55.586;37.730;2023-05-07T10:20:19;100441.16;;;12.37;30.64
62712;BME280;48772;55.586;37.730;2023-05-07T10:22:48;100429.25;;;13.43;29.54
62712;BME280;48772;55.586;37.730;2023-05-07T10:25:23;100436.56;;;14.17;28.71
62712;BME280;48772;55.586;37.730;2023-05-07T10:27:53;100440.69;;;14.63;27.98
62712;BME280;48772;55.586;37.730;2023-05-07T10:33:11;100441.06;;;14.16;27.74
62712;BME280;48772;55.586;37.730;2023-05-07T10:35:44;100440.53;;;13.91;28.06
62712;BME280;48772;55.586;37.730;2023-05-07T10:38:11;100435.75;;;14.48;28.35
62712;BME280;48772;55.586;37.730;2023-05-07T10:40:40;100436.88;;;14.86;28.09
62712;BME280;48772;55.586;37.730;2023-05-07T10:43:07;100432.94;;;14.90;27.21
62712;BME280;48772;55.586;37.730;2023-05-07T10:46:17;100440.38;;;15.48;27.17
62712;BME280;48772;55.586;37.730;2023-05-07T10:51:39;100437.41;;;15.21;26.07
62712;BME280;48772;55.586;37.730;2023-05-07T10:54:25;100431.69;;;14.22;26.07
62712;BME280;48772;55.586;37.730;2023-05-07T10:57:35;100442.97;;;13.72;27.97
62712;BME280;48772;55.586;37.730;2023-05-07T11:05:47;100452.56;;;12.97;28.13
62712;BME280;48772;55.586;37.730;2023-05-07T11:11:14;100451.91;;;12.93;28.34
62712;BME280;48772;55.586;37.730;2023-05-07T11:13:49;100426.09;;;12.81;28.13
62712;BME280;48772;55.586;37.730;2023-05-07T11:16:26;100432.66;;;13.45;27.48
62712;BME280;48772;55.586;37.730;2023-05-07T11:19:04;100418.88;;;13.50;26.36
62712;BME280;48772;55.586;37.730;2023-05-07T11:21:37;100422.28;;;13.18;26.39
62712;BME280;48772;55.586;37.730;2023-05-07T11:24:19;100410.72;;;13.18;27.62
62712;BME280;48772;55.586;37.730;2023-05-07T11:27:00;100422.28;;;13.07;28.07
62712;BME280;48772;55.586;37.730;2023-05-07T11:29:27;100417.84;;;12.84;27.40
62712;BME280;48772;55.586;37.730;2023-05-07T11:32:14;100452.56;;;12.62;27.78
62712;BME280;48772;55.586;37.730;2023-05-07T11:34:47;100455.16;;;12.40;28.08
62712;BME280;48772;55.586;37.730;2023-05-07T11:37:17;100429.41;;;12.27;28.45
62712;BME280;48772;55.586;37.730;2023-05-07T11:39:50;100444.63;;;12.50;28.83
62712;BME280;48772;55.586;37.730;2023-05-07T11:42:27;100457.28;;;12.59;28.64
62712;BME280;48772;55.586;37.730;2023-05-07T11:44:53;100453.66;;;12.71;28.95
62712;BME280;48772;55.586;37.730;2023-05-07T11:47:20;100444.22;;;12.78;28.87
62712;BME280;48772;55.586;37.730;2023-05-07T11:49:47;100452.72;;;12.72;29.71
62712;BME280;48772;55.586;37.730;2023-05-07T11:52:14;100440.56;;;12.68;28.80
62712;BME280;48772;55.586;37.730;2023-05-07T11:54:40;100447.75;;;11.97;29.19
62712;BME280;48772;55.586;37.730;2023-05-07T11:57:06;100438.97;;;11.71;29.47
62712;BME280;48772;55.586;37.730;2023-05-07T11:59:42;100438.88;;;11.48;29.41
62712;BME280;48772;55.586;37.730;2023-05-07T12:02:10;100418.19;;;11.14;29.48
62712;BME280;48772;55.586;37.730;2023-05-07T12:04:40;100450.13;;;11.03;30.17
62712;BME280;48772;55.586;37.730;2023-05-07T12:07:13;100450.75;;;11.06;30.43
62712;BME280;48772;55.586;37.730;2023-05-07T12:09:40;100463.88;;;11.47;30.57
62712;BME280;48772;55.586;37.730;2023-05-07T12:12:06;100449.97;;;11.54;30.75
62712;BME280;48772;55.586;37.730;2023-05-07T12:14:32;100434.50;;;11.47;30.49
62712;BME280;48772;55.586;37.730;2023-05-07T12:17:02;100463.00;;;11.59;30.98
62712;BME280;48772;55.586;37.730;2023-05-07T12:19:29;100460.66;;;11.54;31.33
62712;BME280;48772;55.586;37.730;2023-05-07T12:21:56;100437.59;;;11.28;31.13
62712;BME280;48772;55.586;37.730;2023-05-07T12:24:23;100457.88;;;11.43;30.95
62712;BME280;48772;55.586;37.730;2023-05-07T12:26:50;100457.78;;;11.45;31.08
62712;BME280;48772;55.586;37.730;2023-05-07T12:29:16;100457.59;;;11.23;30.63
62712;BME280;48772;55.586;37.730;2023-05-07T12:31:42;100461.13;;;11.36;31.24
62712;BME280;48772;55.586;37.730;2023-05-07T12:34:11;100455.88;;;11.95;30.76
62712;BME280;48772;55.586;37.730;2023-05-07T12:36:39;100457.84;;;12.40;29.64
62712;BME280;48772;55.586;37.730;2023-05-07T12:39:08;100433.91;;;11.79;29.69
62712;BME280;48772;55.586;37.730;2023-05-07T12:41:52;100435.41;;;12.30;29.55
62712;BME280;48772;55.586;37.730;2023-05-07T12:44:19;100401.44;;;11.60;30.09
62712;BME280;48772;55.586;37.730;2023-05-07T12:46:46;100440.81;;;11.33;29.99
62712;BME280;48772;55.586;37.730;2023-05-07T12:49:12;100422.38;;;11.05;30.45
62712;BME280;48772;55.586;37.730;2023-05-07T12:51:38;100411.44;;;11.21;30.46
62712;BME280;48772;55.586;37.730;2023-05-07T12:54:04;100448.06;;;11.44;30.35
62712;BME280;48772;55.586;37.730;2023-05-07T12:56:35;100441.44;;;11.62;30.31
62712;BME280;48772;55.586;37.730;2023-05-07T12:59:02;100440.56;;;11.74;30.14
62712;BME280;48772;55.586;37.730;2023-05-07T13:01:31;100400.81;;;11.57;30.50
62712;BME280;48772;55.586;37.730;2023-05-07T13:04:03;100438.38;;;11.79;29.46